Accueil
METAR-TAF:

METAR-TAF

Aéroports :

Naval Auxiliary Landing Field Fentress

Chesapeake, Virginie, États-Unis

latitude: 36-42-03N, longitude: 076-07-42W, altitude: 3 m

Observation

Le bulletin a été fait il y a 32 minutes, à 18:56 UTC
Vent 3 kt de direction variable
Température 32°C
Humidité 56%
Pression 1009 hPa
Visibilité: 16.1 km
Quelques nuages à une hauteur de 4100 ft

METAR: KNFE 101856Z AUTO VRB03KT 10SM FEW041 32/22 A2980 RMK AO2 SLP094 T03170217

Heure: 15:28 (19:28 UTC)


TAF: absent

Observations et prévisions météorologiques de plus de 4000 aéroports (messages METAR et TAF).

Les stations disponibles sont représentées par des disques jaunes et rouges sur la carte.

Passer la souris dessus pour voir le nom de la station.

Cliquer dessus pour voir les observations et prévisions météorologiques.

Pour changer de carte: cliquez sur les boutons verts avec une croix noire pour zoomer, sur le bouton vert avec un tiret pour effectuer un zoom arrière, ou sur les flèches vertes pour les cartes adjacentes.


METAR-TAF: